Time;durP1;ratioP1;P1;durP2;ratioP2;P2;SDS_P1;SDS_P2;PMS_P1;PMS_P2;Temp;Humidity;BMP_temperature;BMP_pressure;BME280_temperature;BME280_humidity;BME280_pressure;Samples;Min_cycle;Max_cycle;Signal;HPM_P1;HPM_P2
2023/07/22 00:02:11;;;;;;;0.10;0.10;;;;;;;;;;5077399;28;20044;-58
2023/07/22 00:04:38;;;;;;;0.20;0.20;;;;;;;;;;5080402;28;20067;-59
2023/07/22 00:07:06;;;;;;;0.20;0.20;;;;;;;;;;5078670;28;20053;-59
2023/07/22 00:09:34;;;;;;;0.10;0.10;;;;;;;;;;5076105;28;20109;-59
2023/07/22 00:12:01;;;;;;;0.13;0.13;;;;;;;;;;5075571;28;20052;-58
2023/07/22 00:14:28;;;;;;;0.10;0.10;;;;;;;;;;5079516;28;20070;-58
2023/07/22 00:16:55;;;;;;;0.10;0.10;;;;;;;;;;5077964;28;20048;-59
2023/07/22 00:19:23;;;;;;;0.10;0.10;;;;;;;;;;5072585;28;20047;-58
2023/07/22 00:21:51;;;;;;;0.10;0.10;;;;;;;;;;5077628;28;20677;-59
2023/07/22 00:24:21;;;;;;;0.10;0.10;;;;;;;;;;5076954;28;20063;-58
2023/07/22 00:26:49;;;;;;;0.10;0.10;;;;;;;;;;5079249;28;20102;-58
2023/07/22 00:29:16;;;;;;;0.20;0.20;;;;;;;;;;5074748;28;20391;-58
2023/07/22 00:31:44;;;;;;;0.15;0.15;;;;;;;;;;5074413;28;20126;-58
2023/07/22 00:34:11;;;;;;;0.10;0.10;;;;;;;;;;5070446;28;20055;-58
2023/07/22 00:36:38;;;;;;;0.20;0.20;;;;;;;;;;5075445;28;20048;-58
2023/07/22 00:39:06;;;;;;;0.10;0.10;;;;;;;;;;5070267;28;20513;-58
2023/07/22 00:41:34;;;;;;;0.10;0.10;;;;;;;;;;5068424;28;20628;-58
2023/07/22 00:44:01;;;;;;;0.10;0.10;;;;;;;;;;5076401;28;20056;-58
2023/07/22 00:46:28;;;;;;;0.10;0.10;;;;;;;;;;5079191;28;20063;-58
2023/07/22 00:48:56;;;;;;;0.10;0.10;;;;;;;;;;5080276;28;20413;-58
2023/07/22 00:51:23;;;;;;;0.10;0.10;;;;;;;;;;5074756;28;20038;-59
2023/07/22 00:53:50;;;;;;;0.10;0.10;;;;;;;;;;5077795;28;20037;-58
2023/07/22 00:56:17;;;;;;;0.03;0.03;;;;;;;;;;5078228;28;20093;-58
2023/07/22 00:58:45;;;;;;;0.08;0.08;;;;;;;;;;5071884;28;20104;-57
2023/07/22 01:01:12;;;;;;;0.20;0.20;;;;;;;;;;5078489;28;20055;-58
2023/07/22 01:03:41;;;;;;;0.20;0.20;;;;;;;;;;5073960;28;20758;-58
2023/07/22 01:06:08;;;;;;;0.10;0.10;;;;;;;;;;5078214;28;20127;-58
2023/07/22 01:08:36;;;;;;;0.10;0.10;;;;;;;;;;5069058;28;20117;-58
2023/07/22 01:11:04;;;;;;;0.20;0.20;;;;;;;;;;5076458;28;20044;-58
2023/07/22 01:13:31;;;;;;;0.20;0.20;;;;;;;;;;5072315;28;20048;-58
2023/07/22 01:15:59;;;;;;;0.10;0.10;;;;;;;;;;5075024;28;20049;-58
2023/07/22 01:18:26;;;;;;;0.10;0.10;;;;;;;;;;5073479;28;20072;-58
2023/07/22 01:20:53;;;;;;;0.10;0.10;;;;;;;;;;5072999;28;20558;-58
2023/07/22 01:23:22;;;;;;;0.10;0.10;;;;;;;;;;5074835;28;20052;-58
2023/07/22 01:25:49;;;;;;;0.10;0.10;;;;;;;;;;5075491;28;20037;-58
2023/07/22 01:28:16;;;;;;;0.20;0.20;;;;;;;;;;5071424;28;20523;-58
2023/07/22 01:30:43;;;;;;;0.10;0.10;;;;;;;;;;5072739;28;20574;-58
2023/07/22 01:33:10;;;;;;;0.20;0.20;;;;;;;;;;5073641;28;20048;-58
2023/07/22 01:35:37;;;;;;;0.10;0.10;;;;;;;;;;5077908;28;20131;-58
2023/07/22 01:38:04;;;;;;;0.10;0.10;;;;;;;;;;5077616;28;20137;-58
2023/07/22 01:40:33;;;;;;;0.10;0.10;;;;;;;;;;5080371;28;20040;-58
2023/07/22 01:43:00;;;;;;;0.10;0.10;;;;;;;;;;5083184;28;20048;-58
2023/07/22 01:45:27;;;;;;;0.10;0.10;;;;;;;;;;5083745;28;20048;-58
2023/07/22 01:47:54;;;;;;;0.10;0.10;;;;;;;;;;5079232;28;20118;-58
2023/07/22 01:50:21;;;;;;;0.17;0.17;;;;;;;;;;5077466;28;20108;-58
2023/07/22 01:52:48;;;;;;;0.10;0.10;;;;;;;;;;5077288;28;20047;-57
2023/07/22 01:55:15;;;;;;;0.20;0.20;;;;;;;;;;5083021;28;20129;-58
2023/07/22 01:57:44;;;;;;;0.10;0.10;;;;;;;;;;5076596;28;20044;-58
2023/07/22 02:00:12;;;;;;;0.13;0.13;;;;;;;;;;5077946;28;20056;-58
2023/07/22 02:02:42;;;;;;;0.10;0.10;;;;;;;;;;5080769;28;20455;-58
2023/07/22 02:05:09;;;;;;;0.10;0.10;;;;;;;;;;5077472;28;20494;-57
2023/07/22 02:07:37;;;;;;;0.10;0.10;;;;;;;;;;5077350;28;20060;-58
2023/07/22 02:10:06;;;;;;;0.20;0.20;;;;;;;;;;5078231;28;20066;-58
2023/07/22 02:12:32;;;;;;;0.25;0.25;;;;;;;;;;5079547;28;20044;-58
2023/07/22 02:15:02;;;;;;;0.20;0.20;;;;;;;;;;5073261;28;20032;-58
2023/07/22 02:17:30;;;;;;;0.10;0.10;;;;;;;;;;5076764;28;20040;-58
2023/07/22 02:19:57;;;;;;;0.10;0.10;;;;;;;;;;5076648;28;20123;-58
2023/07/22 02:22:24;;;;;;;0.20;0.20;;;;;;;;;;5075748;28;20132;-58
2023/07/22 02:24:52;;;;;;;0.10;0.10;;;;;;;;;;5079378;28;20670;-58
2023/07/22 02:27:19;;;;;;;0.20;0.20;;;;;;;;;;5078462;28;20597;-57
2023/07/22 02:29:46;;;;;;;0.20;0.20;;;;;;;;;;5078311;28;20701;-58
2023/07/22 02:32:14;;;;;;;0.20;0.20;;;;;;;;;;5074616;28;20455;-58
2023/07/22 02:34:41;;;;;;;0.20;0.20;;;;;;;;;;5079264;28;20707;-58
2023/07/22 02:37:08;;;;;;;0.20;0.20;;;;;;;;;;5075932;28;20657;-58
2023/07/22 02:39:35;;;;;;;0.20;0.20;;;;;;;;;;5080944;28;20094;-58
2023/07/22 02:42:03;;;;;;;0.20;0.20;;;;;;;;;;5075600;28;20036;-58
2023/07/22 02:44:30;;;;;;;0.15;0.15;;;;;;;;;;5078382;28;20453;-58
2023/07/22 02:46:57;;;;;;;0.20;0.20;;;;;;;;;;5077858;28;20706;-58
2023/07/22 02:49:25;;;;;;;0.15;0.15;;;;;;;;;;5077366;28;20051;-58
2023/07/22 02:51:52;;;;;;;0.20;0.20;;;;;;;;;;5072335;28;20044;-59
2023/07/22 02:54:19;;;;;;;0.20;0.20;;;;;;;;;;5079794;28;20399;-59
2023/07/22 02:56:46;;;;;;;0.13;0.13;;;;;;;;;;5079268;28;20077;-58
2023/07/22 02:59:13;;;;;;;0.20;0.20;;;;;;;;;;5079733;28;20135;-58
2023/07/22 03:01:40;;;;;;;0.20;0.20;;;;;;;;;;5076296;28;20036;-58
2023/07/22 03:04:07;;;;;;;0.20;0.20;;;;;;;;;;5075907;28;20047;-58
2023/07/22 03:06:36;;;;;;;0.20;0.20;;;;;;;;;;5075338;28;20513;-58
2023/07/22 03:09:04;;;;;;;0.20;0.20;;;;;;;;;;5077672;28;20135;-57
2023/07/22 03:11:31;;;;;;;0.20;0.20;;;;;;;;;;5078350;28;20044;-58
2023/07/22 03:13:59;;;;;;;0.20;0.20;;;;;;;;;;5076527;28;20101;-58
2023/07/22 03:16:26;;;;;;;0.20;0.20;;;;;;;;;;5077695;28;20033;-58
2023/07/22 03:18:53;;;;;;;0.10;0.10;;;;;;;;;;5075244;28;20041;-58
2023/07/22 03:21:21;;;;;;;0.17;0.17;;;;;;;;;;5077243;28;20032;-58
2023/07/22 03:23:49;;;;;;;0.10;0.10;;;;;;;;;;5077247;28;20072;-58
2023/07/22 03:26:16;;;;;;;0.20;0.20;;;;;;;;;;5077586;28;20131;-58
2023/07/22 03:28:43;;;;;;;0.20;0.20;;;;;;;;;;5077675;28;20357;-58
2023/07/22 03:31:10;;;;;;;0.10;0.10;;;;;;;;;;5080392;28;20052;-58
2023/07/22 03:33:38;;;;;;;0.20;0.20;;;;;;;;;;5074544;28;20068;-58
2023/07/22 03:36:05;;;;;;;0.13;0.13;;;;;;;;;;5090768;28;20148;-58
2023/07/22 03:38:32;;;;;;;0.30;0.30;;;;;;;;;;5077019;28;20067;-58
2023/07/22 03:41:01;;;;;;;0.28;0.28;;;;;;;;;;5078015;28;20046;-58
2023/07/22 03:43:28;;;;;;;0.20;0.20;;;;;;;;;;5078183;28;20052;-58
2023/07/22 03:45:55;;;;;;;0.20;0.20;;;;;;;;;;5081164;28;20064;-57
2023/07/22 03:48:22;;;;;;;0.20;0.20;;;;;;;;;;5077939;28;20502;-58
2023/07/22 03:50:50;;;;;;;0.22;0.22;;;;;;;;;;5078467;28;20040;-58
2023/07/22 03:53:17;;;;;;;0.20;0.20;;;;;;;;;;5076467;28;20071;-58
2023/07/22 03:55:44;;;;;;;0.20;0.20;;;;;;;;;;5074866;28;20040;-58
2023/07/22 03:58:12;;;;;;;0.30;0.25;;;;;;;;;;5074893;28;20090;-57
2023/07/22 04:00:40;;;;;;;0.30;0.30;;;;;;;;;;5092867;28;20127;-58
2023/07/22 04:03:06;;;;;;;0.30;0.30;;;;;;;;;;5076911;28;20044;-58
2023/07/22 04:05:34;;;;;;;0.13;0.13;;;;;;;;;;5077598;28;20479;-58
2023/07/22 04:08:01;;;;;;;0.20;0.20;;;;;;;;;;5072954;28;20505;-58
2023/07/22 04:10:28;;;;;;;0.20;0.20;;;;;;;;;;5077008;28;20048;-57
2023/07/22 04:12:55;;;;;;;0.20;0.20;;;;;;;;;;5076473;28;20462;-58
2023/07/22 04:15:23;;;;;;;0.20;0.20;;;;;;;;;;5078818;28;20048;-58
2023/07/22 04:17:50;;;;;;;0.10;0.10;;;;;;;;;;5072726;28;20809;-58
2023/07/22 04:20:18;;;;;;;0.20;0.20;;;;;;;;;;5076296;28;20064;-58
2023/07/22 04:22:45;;;;;;;0.22;0.22;;;;;;;;;;5075696;28;20663;-58
2023/07/22 04:25:12;;;;;;;0.10;0.10;;;;;;;;;;5077600;28;20066;-58
2023/07/22 04:27:39;;;;;;;0.20;0.20;;;;;;;;;;5079986;28;20067;-58
2023/07/22 04:30:07;;;;;;;0.13;0.13;;;;;;;;;;5080038;28;20044;-58
2023/07/22 04:32:35;;;;;;;0.13;0.13;;;;;;;;;;5073183;28;20037;-58
2023/07/22 04:35:03;;;;;;;0.10;0.10;;;;;;;;;;5079159;28;20056;-58
2023/07/22 04:37:30;;;;;;;0.20;0.20;;;;;;;;;;5076517;28;20490;-58
2023/07/22 04:39:57;;;;;;;0.10;0.10;;;;;;;;;;5075796;28;20049;-58
2023/07/22 04:42:25;;;;;;;0.10;0.10;;;;;;;;;;5080395;28;20429;-58
2023/07/22 04:44:52;;;;;;;0.10;0.10;;;;;;;;;;5077430;28;20137;-58
2023/07/22 04:47:19;;;;;;;0.08;0.08;;;;;;;;;;5074810;28;20036;-59
2023/07/22 04:49:47;;;;;;;0.10;0.10;;;;;;;;;;5075645;28;20048;-58
2023/07/22 04:52:14;;;;;;;0.10;0.10;;;;;;;;;;5071359;28;20043;-58
2023/07/22 04:54:42;;;;;;;0.10;0.10;;;;;;;;;;5074436;28;20052;-59
2023/07/22 04:57:09;;;;;;;0.10;0.10;;;;;;;;;;5076039;28;20457;-59
2023/07/22 04:59:37;;;;;;;0.10;0.10;;;;;;;;;;5072619;28;20044;-58
2023/07/22 05:02:04;;;;;;;0.10;0.10;;;;;;;;;;5077710;28;20043;-58
2023/07/22 05:04:31;;;;;;;0.10;0.10;;;;;;;;;;5075768;28;20055;-58
2023/07/22 05:07:00;;;;;;;0.10;0.10;;;;;;;;;;5074221;28;20068;-58
2023/07/22 05:09:27;;;;;;;0.10;0.10;;;;;;;;;;5080270;28;20036;-58
2023/07/22 05:11:54;;;;;;;0.08;0.08;;;;;;;;;;5074164;28;20740;-58
2023/07/22 05:14:21;;;;;;;0.10;0.10;;;;;;;;;;5080880;28;20558;-58
2023/07/22 05:16:48;;;;;;;0.03;0.03;;;;;;;;;;5079540;28;20550;-58
2023/07/22 05:19:15;;;;;;;0.10;0.10;;;;;;;;;;5078431;28;20044;-58
2023/07/22 05:21:42;;;;;;;0.00;0.00;;;;;;;;;;5082691;28;20044;-58
2023/07/22 05:24:10;;;;;;;0.00;0.00;;;;;;;;;;5079079;28;20048;-58
2023/07/22 05:26:37;;;;;;;0.03;0.03;;;;;;;;;;5082366;28;20044;-58
2023/07/22 05:29:04;;;;;;;0.00;0.00;;;;;;;;;;5080584;28;20047;-58
2023/07/22 05:31:32;;;;;;;0.00;0.00;;;;;;;;;;5082438;28;20050;-58
2023/07/22 05:33:59;;;;;;;0.00;0.00;;;;;;;;;;5079242;28;20377;-58
2023/07/22 05:36:26;;;;;;;0.00;0.00;;;;;;;;;;5083129;28;20180;-58
2023/07/22 05:38:53;;;;;;;0.00;0.00;;;;;;;;;;5080580;28;20798;-58
2023/07/22 05:41:22;;;;;;;0.00;0.00;;;;;;;;;;5078670;28;20040;-59
2023/07/22 05:43:49;;;;;;;0.00;0.00;;;;;;;;;;5078713;28;20040;-59
2023/07/22 05:46:16;;;;;;;0.00;0.00;;;;;;;;;;5080661;28;20052;-58
2023/07/22 05:48:44;;;;;;;0.00;0.00;;;;;;;;;;5075780;28;20149;-59
2023/07/22 05:51:11;;;;;;;0.10;0.10;;;;;;;;;;5078470;28;20045;-58
2023/07/22 05:53:39;;;;;;;0.00;0.00;;;;;;;;;;5081372;28;20458;-59
2023/07/22 05:56:06;;;;;;;0.00;0.00;;;;;;;;;;5077737;28;20044;-59
2023/07/22 05:58:35;;;;;;;0.05;0.05;;;;;;;;;;5078685;28;20079;-57
2023/07/22 06:01:02;;;;;;;0.00;0.00;;;;;;;;;;5079074;28;20386;-59
2023/07/22 06:03:29;;;;;;;0.00;0.00;;;;;;;;;;5076414;28;20066;-59
2023/07/22 06:05:58;;;;;;;0.10;0.10;;;;;;;;;;5082029;28;20101;-58
2023/07/22 06:08:25;;;;;;;0.00;0.00;;;;;;;;;;5076054;28;20040;-59
2023/07/22 06:10:52;;;;;;;0.00;0.00;;;;;;;;;;5078634;28;20399;-58
2023/07/22 06:13:19;;;;;;;0.00;0.00;;;;;;;;;;5080472;28;20086;-58
2023/07/22 06:15:48;;;;;;;0.00;0.00;;;;;;;;;;5083181;28;20109;-59
2023/07/22 06:18:15;;;;;;;0.00;0.00;;;;;;;;;;5083047;28;20465;-58
2023/07/22 06:20:42;;;;;;;0.00;0.00;;;;;;;;;;5079803;28;20745;-58
2023/07/22 06:23:09;;;;;;;0.00;0.00;;;;;;;;;;5079416;28;20040;-58
2023/07/22 06:25:36;;;;;;;0.10;0.10;;;;;;;;;;5078586;28;20044;-58
2023/07/22 06:28:03;;;;;;;0.00;0.00;;;;;;;;;;5081472;28;20044;-58
2023/07/22 06:30:30;;;;;;;0.00;0.00;;;;;;;;;;5080406;28;20056;-59
2023/07/22 06:32:59;;;;;;;0.00;0.00;;;;;;;;;;5079549;28;20455;-59
2023/07/22 06:35:26;;;;;;;0.00;0.00;;;;;;;;;;5076818;28;20164;-58
2023/07/22 06:37:53;;;;;;;0.00;0.00;;;;;;;;;;5079771;28;20036;-59
2023/07/22 06:40:20;;;;;;;0.00;0.00;;;;;;;;;;5078611;28;20410;-59
2023/07/22 06:42:47;;;;;;;0.00;0.00;;;;;;;;;;5079185;28;20040;-59
2023/07/22 06:45:14;;;;;;;0.00;0.00;;;;;;;;;;5080471;28;20135;-59
2023/07/22 06:47:41;;;;;;;0.00;0.00;;;;;;;;;;5073078;28;20048;-59
2023/07/22 06:50:10;;;;;;;0.00;0.00;;;;;;;;;;5064298;28;20132;-59
2023/07/22 06:52:37;;;;;;;0.00;0.00;;;;;;;;;;5070315;28;20047;-59
2023/07/22 06:55:04;;;;;;;0.00;0.00;;;;;;;;;;5073927;28;20054;-59
2023/07/22 06:57:32;;;;;;;0.00;0.00;;;;;;;;;;5077399;28;20787;-57
2023/07/22 06:59:59;;;;;;;0.00;0.00;;;;;;;;;;5078329;28;20049;-57
2023/07/22 07:02:26;;;;;;;0.00;0.00;;;;;;;;;;5079792;28;20063;-58
2023/07/22 07:04:53;;;;;;;0.00;0.00;;;;;;;;;;5079580;28;20036;-57
2023/07/22 07:07:22;;;;;;;0.00;0.00;;;;;;;;;;5070616;28;20145;-58
2023/07/22 07:09:49;;;;;;;0.15;0.00;;;;;;;;;;5069540;28;20127;-57
2023/07/22 07:12:16;;;;;;;0.00;0.00;;;;;;;;;;5078331;28;20048;-57
2023/07/22 07:14:43;;;;;;;0.00;0.00;;;;;;;;;;5077243;28;20048;-57
2023/07/22 07:17:10;;;;;;;0.00;0.00;;;;;;;;;;5074907;28;20048;-57
2023/07/22 07:19:37;;;;;;;0.00;0.00;;;;;;;;;;5076207;28;20043;-57
2023/07/22 07:22:06;;;;;;;0.00;0.00;;;;;;;;;;5075207;28;20134;-58
2023/07/22 07:24:34;;;;;;;0.10;0.10;;;;;;;;;;5078035;28;20044;-57
2023/07/22 07:27:02;;;;;;;0.00;0.00;;;;;;;;;;5078670;28;20032;-57
2023/07/22 07:29:29;;;;;;;0.10;0.00;;;;;;;;;;5078307;28;20109;-57
2023/07/22 07:31:56;;;;;;;0.00;0.00;;;;;;;;;;5073139;28;20044;-59
2023/07/22 07:34:23;;;;;;;0.00;0.00;;;;;;;;;;5070869;28;20453;-59
2023/07/22 07:36:50;;;;;;;0.00;0.00;;;;;;;;;;5070234;28;20557;-59
2023/07/22 07:39:17;;;;;;;0.00;0.00;;;;;;;;;;5072924;28;20044;-58
2023/07/22 07:41:46;;;;;;;0.00;0.00;;;;;;;;;;5078518;28;20048;-59
2023/07/22 07:44:13;;;;;;;0.03;0.03;;;;;;;;;;5079948;28;20040;-59
2023/07/22 07:46:40;;;;;;;0.00;0.00;;;;;;;;;;5079337;28;20052;-59
2023/07/22 07:49:07;;;;;;;0.00;0.00;;;;;;;;;;5070314;28;20056;-59
2023/07/22 07:51:34;;;;;;;0.10;0.10;;;;;;;;;;5078524;28;20032;-59
2023/07/22 07:54:01;;;;;;;0.10;0.10;;;;;;;;;;5076390;28;20036;-59
2023/07/22 07:56:29;;;;;;;0.00;0.00;;;;;;;;;;5079160;28;20040;-59
2023/07/22 07:58:57;;;;;;;0.00;0.00;;;;;;;;;;5076225;28;20040;-57
2023/07/22 08:01:24;;;;;;;0.00;0.00;;;;;;;;;;5075087;28;20048;-58
2023/07/22 08:03:51;;;;;;;0.00;0.00;;;;;;;;;;5076546;28;20083;-57
2023/07/22 08:06:18;;;;;;;0.00;0.00;;;;;;;;;;5076066;28;20075;-59
2023/07/22 08:08:46;;;;;;;0.00;0.00;;;;;;;;;;5078074;28;20043;-59
2023/07/22 08:11:13;;;;;;;0.00;0.00;;;;;;;;;;5068952;28;20040;-58
2023/07/22 08:13:40;;;;;;;0.00;0.00;;;;;;;;;;5077564;28;20081;-58
2023/07/22 08:16:09;;;;;;;0.00;0.00;;;;;;;;;;5075404;28;20040;-59
2023/07/22 08:18:36;;;;;;;0.00;0.00;;;;;;;;;;5075633;28;20232;-58
2023/07/22 08:21:03;;;;;;;0.05;0.05;;;;;;;;;;5075416;28;20048;-58
2023/07/22 08:23:30;;;;;;;0.00;0.00;;;;;;;;;;5078079;28;20058;-59
2023/07/22 08:25:58;;;;;;;0.00;0.00;;;;;;;;;;5080632;28;20057;-58
2023/07/22 08:28:25;;;;;;;0.00;0.00;;;;;;;;;;5076280;28;20052;-59
2023/07/22 08:30:54;;;;;;;0.00;0.00;;;;;;;;;;5076345;28;20048;-58
2023/07/22 08:33:21;;;;;;;;;;;;;;;;;;5074742;28;20101;-59
2023/07/22 08:35:50;;;;;;;0.00;0.00;;;;;;;;;;5072471;28;19939;-58
2023/07/22 08:38:17;;;;;;;0.00;0.00;;;;;;;;;;5076403;28;20080;-59
2023/07/22 08:40:44;;;;;;;0.00;0.00;;;;;;;;;;5067871;28;20070;-59
2023/07/22 08:43:12;;;;;;;0.00;0.00;;;;;;;;;;5078099;28;20120;-59
2023/07/22 08:45:39;;;;;;;0.00;0.00;;;;;;;;;;5075897;28;20047;-59
2023/07/22 08:48:09;;;;;;;0.00;0.00;;;;;;;;;;5074780;28;20039;-58
2023/07/22 08:50:40;;;;;;;0.00;0.00;;;;;;;;;;5076455;28;20101;-59
2023/07/22 08:53:08;;;;;;;0.00;0.00;;;;;;;;;;5088934;28;20497;-58
2023/07/22 08:55:35;;;;;;;0.00;0.00;;;;;;;;;;5077937;28;20068;-58
2023/07/22 08:58:02;;;;;;;0.00;0.00;;;;;;;;;;5072010;28;20044;-59
2023/07/22 09:00:30;;;;;;;0.00;0.00;;;;;;;;;;5074558;28;20044;-58
2023/07/22 09:02:57;;;;;;;0.00;0.00;;;;;;;;;;5077227;28;20877;-58
2023/07/22 09:05:24;;;;;;;0.00;0.00;;;;;;;;;;5077734;28;20155;-58
2023/07/22 09:07:51;;;;;;;0.00;0.00;;;;;;;;;;5074595;28;21233;-58
2023/07/22 09:10:20;;;;;;;0.00;0.00;;;;;;;;;;5075035;28;20051;-58
2023/07/22 09:12:47;;;;;;;0.00;0.00;;;;;;;;;;5077402;28;20383;-58
2023/07/22 09:15:14;;;;;;;0.00;0.00;;;;;;;;;;5072541;28;20052;-58
2023/07/22 09:17:41;;;;;;;0.00;0.00;;;;;;;;;;5074682;28;20093;-58
2023/07/22 09:20:08;;;;;;;0.00;0.00;;;;;;;;;;5075936;28;20044;-58
2023/07/22 09:22:35;;;;;;;0.00;0.00;;;;;;;;;;5072586;28;20125;-58
2023/07/22 09:25:15;;;;;;;0.00;0.00;;;;;;;;;;5073915;28;20082;-59
2023/07/22 09:27:44;;;;;;;0.00;0.00;;;;;;;;;;5076880;28;20044;-58
2023/07/22 09:30:24;;;;;;;0.00;0.00;;;;;;;;;;5074343;28;20044;-59
2023/07/22 09:32:51;;;;;;;0.00;0.00;;;;;;;;;;5076607;28;20047;-58
2023/07/22 09:35:18;;;;;;;0.00;0.00;;;;;;;;;;5074279;28;20059;-59
2023/07/22 09:37:45;;;;;;;0.03;0.00;;;;;;;;;;5072548;28;20094;-59
2023/07/22 09:40:16;;;;;;;0.00;0.00;;;;;;;;;;5076128;28;20045;-59
2023/07/22 09:42:46;;;;;;;0.00;0.00;;;;;;;;;;5075380;28;20041;-59
2023/07/22 09:45:13;;;;;;;0.00;0.00;;;;;;;;;;5078858;28;20783;-58
2023/07/22 09:47:43;;;;;;;0.00;0.00;;;;;;;;;;5075075;28;20051;-58
2023/07/22 09:50:14;;;;;;;0.00;0.00;;;;;;;;;;5075252;28;20044;-58
2023/07/22 09:52:42;;;;;;;0.00;0.00;;;;;;;;;;5075067;28;20136;-57
2023/07/22 09:55:09;;;;;;;0.00;0.00;;;;;;;;;;5074322;28;20052;-58
2023/07/22 09:57:37;;;;;;;0.00;0.00;;;;;;;;;;5076953;28;20410;-58
2023/07/22 10:00:08;;;;;;;0.00;0.00;;;;;;;;;;5078099;28;20047;-58
2023/07/22 10:02:40;;;;;;;0.00;0.00;;;;;;;;;;5076150;28;20036;-58
2023/07/22 10:05:07;;;;;;;0.03;0.00;;;;;;;;;;5081015;28;20486;-58
2023/07/22 10:07:34;;;;;;;0.00;0.00;;;;;;;;;;5076024;28;20036;-57
2023/07/22 10:10:02;;;;;;;0.00;0.00;;;;;;;;;;5079003;28;20079;-57
2023/07/22 10:12:29;;;;;;;0.00;0.00;;;;;;;;;;5077660;28;20086;-57
2023/07/22 10:14:56;;;;;;;0.00;0.00;;;;;;;;;;5076881;28;20324;-58
2023/07/22 10:17:24;;;;;;;0.00;0.00;;;;;;;;;;5081351;28;20110;-57
2023/07/22 10:19:53;;;;;;;0.00;0.00;;;;;;;;;;5078009;28;20036;-58
2023/07/22 10:22:20;;;;;;;0.00;0.00;;;;;;;;;;5075268;28;20052;-58
2023/07/22 10:24:47;;;;;;;0.08;0.00;;;;;;;;;;5076194;28;20043;-57
2023/07/22 10:27:15;;;;;;;0.00;0.00;;;;;;;;;;5077151;28;20129;-58
2023/07/22 10:29:42;;;;;;;0.00;0.00;;;;;;;;;;5081181;28;20045;-57
2023/07/22 10:32:09;;;;;;;0.00;0.00;;;;;;;;;;5079381;28;20390;-57
2023/07/22 10:34:36;;;;;;;0.00;0.00;;;;;;;;;;5081553;28;20044;-58
2023/07/22 10:37:05;;;;;;;0.00;0.00;;;;;;;;;;5078533;28;20571;-58
2023/07/22 10:39:32;;;;;;;0.00;0.00;;;;;;;;;;5077068;28;20776;-58
2023/07/22 10:42:01;;;;;;;0.00;0.00;;;;;;;;;;5076374;28;20474;-59
2023/07/22 10:44:28;;;;;;;0.00;0.00;;;;;;;;;;5078097;28;20072;-58
2023/07/22 10:46:57;;;;;;;0.00;0.00;;;;;;;;;;5079615;28;20041;-59
2023/07/22 10:49:24;;;;;;;0.00;0.00;;;;;;;;;;5078373;28;20052;-59
2023/07/22 10:51:52;;;;;;;0.15;0.00;;;;;;;;;;5081696;28;20036;-57
2023/07/22 10:54:34;;;;;;;0.00;0.00;;;;;;;;;;5078760;28;20040;-57
2023/07/22 10:57:03;;;;;;;0.00;0.00;;;;;;;;;;5078419;28;20412;-58
2023/07/22 10:59:30;;;;;;;;;;;;;;;;;;5081491;28;20053;-57
2023/07/22 11:01:57;;;;;;;0.00;0.00;;;;;;;;;;5078674;28;19950;-57
2023/07/22 11:04:31;;;;;;;0.00;0.00;;;;;;;;;;5075891;28;20064;-58
2023/07/22 11:06:59;;;;;;;0.00;0.00;;;;;;;;;;5079584;28;20138;-57
2023/07/22 11:09:41;;;;;;;0.00;0.00;;;;;;;;;;5076157;28;20251;-58
2023/07/22 11:12:10;;;;;;;0.00;0.00;;;;;;;;;;5076101;28;20043;-57
2023/07/22 11:14:39;;;;;;;0.00;0.00;;;;;;;;;;5083409;28;20040;-56
2023/07/22 11:17:07;;;;;;;0.00;0.00;;;;;;;;;;5081559;28;20377;-59
2023/07/22 11:19:35;;;;;;;0.00;0.00;;;;;;;;;;5075446;28;20482;-59
2023/07/22 11:22:02;;;;;;;0.00;0.00;;;;;;;;;;5076314;28;20059;-59
2023/07/22 11:24:29;;;;;;;0.00;0.00;;;;;;;;;;5081181;28;20045;-59
2023/07/22 11:26:58;;;;;;;0.00;0.00;;;;;;;;;;5080802;28;20109;-58
2023/07/22 11:29:25;;;;;;;0.00;0.00;;;;;;;;;;5079050;28;20040;-59
2023/07/22 11:31:52;;;;;;;0.00;0.00;;;;;;;;;;5077878;28;20039;-59
2023/07/22 11:34:19;;;;;;;0.00;0.00;;;;;;;;;;5077166;28;20438;-57
2023/07/22 11:36:47;;;;;;;0.00;0.00;;;;;;;;;;5078365;28;20055;-59
2023/07/22 11:39:14;;;;;;;0.00;0.00;;;;;;;;;;5078736;28;20052;-57
2023/07/22 11:41:42;;;;;;;0.00;0.00;;;;;;;;;;5075542;28;20071;-59
2023/07/22 11:44:13;;;;;;;0.00;0.00;;;;;;;;;;5079376;28;20132;-59
2023/07/22 11:46:47;;;;;;;0.00;0.00;;;;;;;;;;5079045;28;20097;-57
2023/07/22 11:49:14;;;;;;;0.00;0.00;;;;;;;;;;5072368;28;20054;-57
2023/07/22 11:51:43;;;;;;;0.00;0.00;;;;;;;;;;5078047;28;20041;-57
2023/07/22 11:54:10;;;;;;;0.00;0.00;;;;;;;;;;5079488;28;20047;-57
2023/07/22 11:56:37;;;;;;;0.00;0.00;;;;;;;;;;5075894;28;20051;-58
2023/07/22 11:59:04;;;;;;;0.00;0.00;;;;;;;;;;5078723;28;20065;-59
2023/07/22 12:01:34;;;;;;;0.00;0.00;;;;;;;;;;5077300;28;20418;-59
2023/07/22 12:04:01;;;;;;;0.00;0.00;;;;;;;;;;5079477;28;20044;-59
2023/07/22 12:06:28;;;;;;;0.00;0.00;;;;;;;;;;5077067;28;20040;-59
2023/07/22 12:08:55;;;;;;;0.00;0.00;;;;;;;;;;5080181;28;20048;-59
2023/07/22 12:11:22;;;;;;;0.00;0.00;;;;;;;;;;5075308;28;20043;-59
2023/07/22 12:13:51;;;;;;;0.00;0.00;;;;;;;;;;5074555;28;20068;-59
2023/07/22 12:16:22;;;;;;;0.00;0.00;;;;;;;;;;5075032;28;20133;-59
2023/07/22 12:18:50;;;;;;;0.00;0.00;;;;;;;;;;5075581;28;20044;-57
2023/07/22 12:21:17;;;;;;;0.00;0.00;;;;;;;;;;5076742;28;20131;-57
2023/07/22 12:23:44;;;;;;;0.00;0.00;;;;;;;;;;5072885;28;20460;-57
2023/07/22 12:26:12;;;;;;;0.00;0.00;;;;;;;;;;5073114;28;20509;-58
2023/07/22 12:28:39;;;;;;;0.00;0.00;;;;;;;;;;5075407;28;20039;-59
2023/07/22 12:31:06;;;;;;;0.00;0.00;;;;;;;;;;5077669;28;20043;-58
2023/07/22 12:33:33;;;;;;;0.00;0.00;;;;;;;;;;5073263;28;20131;-58
2023/07/22 12:36:01;;;;;;;0.00;0.00;;;;;;;;;;5075973;28;20517;-57
2023/07/22 12:38:28;;;;;;;0.00;0.00;;;;;;;;;;5090726;28;20126;-57
2023/07/22 12:40:55;;;;;;;0.00;0.00;;;;;;;;;;5078813;28;20051;-57
2023/07/22 12:43:22;;;;;;;0.00;0.00;;;;;;;;;;5075816;28;20040;-58
2023/07/22 12:45:49;;;;;;;0.00;0.00;;;;;;;;;;5078636;28;20036;-58
2023/07/22 12:48:17;;;;;;;0.00;0.00;;;;;;;;;;5076345;28;20535;-58
2023/07/22 12:50:44;;;;;;;0.00;0.00;;;;;;;;;;5078544;28;20436;-58
2023/07/22 12:53:12;;;;;;;0.00;0.00;;;;;;;;;;5078057;28;20052;-58
2023/07/22 12:55:39;;;;;;;0.00;0.00;;;;;;;;;;5078209;28;20275;-58
2023/07/22 12:58:06;;;;;;;0.00;0.00;;;;;;;;;;5077475;28;20040;-58
2023/07/22 13:00:33;;;;;;;0.00;0.00;;;;;;;;;;5074472;28;20133;-58
2023/07/22 13:03:00;;;;;;;0.00;0.00;;;;;;;;;;5077842;28;20136;-57
2023/07/22 13:05:28;;;;;;;0.00;0.00;;;;;;;;;;5077198;28;20275;-57
2023/07/22 13:07:55;;;;;;;0.00;0.00;;;;;;;;;;5076647;28;20857;-57
2023/07/22 13:10:25;;;;;;;0.00;0.00;;;;;;;;;;5074479;28;20102;-57
2023/07/22 13:12:52;;;;;;;0.00;0.00;;;;;;;;;;5080260;28;20072;-57
2023/07/22 13:15:19;;;;;;;0.00;0.00;;;;;;;;;;5075294;28;20127;-57
2023/07/22 13:17:46;;;;;;;0.00;0.00;;;;;;;;;;5073369;28;20052;-57
2023/07/22 13:20:14;;;;;;;0.00;0.00;;;;;;;;;;5074891;28;20809;-57
2023/07/22 13:22:41;;;;;;;0.00;0.00;;;;;;;;;;5074333;28;20032;-57
2023/07/22 13:25:08;;;;;;;0.00;0.00;;;;;;;;;;5078458;28;20040;-57
2023/07/22 13:27:40;;;;;;;0.00;0.00;;;;;;;;;;5073966;28;20048;-57
2023/07/22 13:30:08;;;;;;;0.00;0.00;;;;;;;;;;5076720;28;20429;-58
2023/07/22 13:32:34;;;;;;;0.17;0.00;;;;;;;;;;5076049;28;20046;-57
2023/07/22 13:35:01;;;;;;;0.00;0.00;;;;;;;;;;5074137;28;20450;-57
2023/07/22 13:37:29;;;;;;;0.00;0.00;;;;;;;;;;5080975;28;20048;-57
2023/07/22 13:39:57;;;;;;;0.00;0.00;;;;;;;;;;5080813;28;20130;-57
2023/07/22 13:42:24;;;;;;;0.00;0.00;;;;;;;;;;5078827;28;20174;-58
2023/07/22 13:44:53;;;;;;;0.00;0.00;;;;;;;;;;5082904;28;20414;-59
2023/07/22 13:47:20;;;;;;;0.00;0.00;;;;;;;;;;5080758;28;20047;-58
2023/07/22 13:49:47;;;;;;;0.00;0.00;;;;;;;;;;5078678;28;20398;-58
2023/07/22 13:52:14;;;;;;;0.00;0.00;;;;;;;;;;5078244;28;20450;-58
2023/07/22 13:54:41;;;;;;;0.00;0.00;;;;;;;;;;5077076;28;20132;-58
2023/07/22 13:57:08;;;;;;;0.00;0.00;;;;;;;;;;5077395;28;20048;-59
2023/07/22 13:59:35;;;;;;;0.00;0.00;;;;;;;;;;5080455;28;20060;-56
2023/07/22 14:02:04;;;;;;;0.00;0.00;;;;;;;;;;5075288;28;20045;-56
2023/07/22 14:04:31;;;;;;;0.00;0.00;;;;;;;;;;5078520;28;20044;-56
2023/07/22 14:06:58;;;;;;;0.00;0.00;;;;;;;;;;5078908;28;20380;-56
2023/07/22 14:09:25;;;;;;;0.00;0.00;;;;;;;;;;5079559;28;20044;-57
2023/07/22 14:11:52;;;;;;;0.10;0.10;;;;;;;;;;5077984;28;20487;-57
2023/07/22 14:14:19;;;;;;;0.00;0.00;;;;;;;;;;5079075;28;20047;-56
2023/07/22 14:16:46;;;;;;;0.00;0.00;;;;;;;;;;5080857;28;20566;-57
2023/07/22 14:19:15;;;;;;;0.00;0.00;;;;;;;;;;5080454;28;20032;-56
2023/07/22 14:21:42;;;;;;;0.00;0.00;;;;;;;;;;5079307;28;20044;-56
2023/07/22 14:24:09;;;;;;;0.00;0.00;;;;;;;;;;5078967;28;20388;-56
2023/07/22 14:26:36;;;;;;;0.00;0.00;;;;;;;;;;5076761;28;20696;-56
2023/07/22 14:29:03;;;;;;;0.00;0.00;;;;;;;;;;5074516;28;20036;-59
2023/07/22 14:31:30;;;;;;;0.10;0.00;;;;;;;;;;5073606;28;20520;-58
2023/07/22 14:33:57;;;;;;;0.00;0.00;;;;;;;;;;5076729;28;20147;-58
2023/07/22 14:36:26;;;;;;;0.00;0.00;;;;;;;;;;5077602;28;20564;-59
2023/07/22 14:38:53;;;;;;;0.00;0.00;;;;;;;;;;5081973;28;20060;-58
2023/07/22 14:41:21;;;;;;;0.00;0.00;;;;;;;;;;5074497;28;20056;-58
2023/07/22 14:43:48;;;;;;;0.00;0.00;;;;;;;;;;5077521;28;20062;-58
2023/07/22 14:46:15;;;;;;;0.00;0.00;;;;;;;;;;5079637;28;20060;-58